createdAt,value
2019-04-20T00:00:01.063Z,999.90
2019-04-20T00:02:29.667Z,999.90
2019-04-20T00:04:59.123Z,999.90
2019-04-20T00:07:32.469Z,941.37
2019-04-20T00:10:06.290Z,947.57
2019-04-20T00:12:46.086Z,916.70
2019-04-20T00:15:00.628Z,922.00
2019-04-20T00:17:30.654Z,820.60
2019-04-20T00:20:04.772Z,912.73
2019-04-20T00:22:40.237Z,939.20
2019-04-20T00:25:10.526Z,971.07
2019-04-20T00:27:59.803Z,925.97
2019-04-20T00:30:31.530Z,956.97
2019-04-20T00:32:53.249Z,897.03
2019-04-20T00:35:10.854Z,862.57
2019-04-20T00:37:42.912Z,969.20
2019-04-20T00:40:12.698Z,845.03
2019-04-20T00:42:48.485Z,888.30
2019-04-20T00:45:20.436Z,724.17
2019-04-20T00:47:53.745Z,765.47
2019-04-20T00:50:28.305Z,649.33
2019-04-20T00:53:02.277Z,602.97
2019-04-20T00:55:16.915Z,708.63
2019-04-20T00:57:51.866Z,690.00
2019-04-20T01:00:35.049Z,690.60
2019-04-20T01:03:02.333Z,662.33
2019-04-20T01:05:35.364Z,760.27
2019-04-20T01:07:56.405Z,678.50
2019-04-20T01:10:23.658Z,677.33
2019-04-20T01:13:01.194Z,748.27
2019-04-20T01:15:32.652Z,749.87
2019-04-20T01:17:53.993Z,574.27
2019-04-20T01:20:26.487Z,575.77
2019-04-20T01:23:00.099Z,572.17
2019-04-20T01:25:30.102Z,438.33
2019-04-20T01:28:27.818Z,559.50
2019-04-20T01:30:34.999Z,612.87
2019-04-20T01:33:12.447Z,621.13
2019-04-20T01:35:48.055Z,450.47
2019-04-20T01:38:16.695Z,433.50
2019-04-20T01:40:29.526Z,439.50
2019-04-20T01:42:59.525Z,394.60
2019-04-20T01:45:34.316Z,378.87
2019-04-20T01:48:01.807Z,381.97
2019-04-20T01:50:33.707Z,354.80
2019-04-20T01:53:11.549Z,434.43
2019-04-20T01:55:48.338Z,428.33
2019-04-20T01:58:27.423Z,496.87
2019-04-20T02:00:40.093Z,458.40
2019-04-20T02:03:09.916Z,415.07
2019-04-20T02:05:40.352Z,395.70
2019-04-20T02:08:14.480Z,416.63
2019-04-20T02:10:47.690Z,585.57
2019-04-20T02:13:11.297Z,684.20
2019-04-20T02:15:45.131Z,605.73
2019-04-20T02:18:23.152Z,687.23
2019-04-20T02:20:59.894Z,574.77
2019-04-20T02:23:24.987Z,596.60
2019-04-20T02:25:43.994Z,556.03
2019-04-20T02:28:27.394Z,475.73
2019-04-20T02:33:47.234Z,309.40
2019-04-20T02:39:17.063Z,262.67
2019-04-20T02:41:27.583Z,188.47
2019-04-20T02:44:11.083Z,222.70
2019-04-20T02:46:24.674Z,228.03
2019-04-20T02:49:06.065Z,192.17
2019-04-20T02:54:14.937Z,237.70
2019-04-20T02:56:32.738Z,213.50
2019-04-20T02:59:29.623Z,218.57
2019-04-20T03:01:25.322Z,170.83
2019-04-20T03:03:36.562Z,129.17
2019-04-20T03:06:13.469Z,142.07
2019-04-20T03:08:56.364Z,160.50
2019-04-20T03:11:29.407Z,105.23
2019-04-20T03:13:56.778Z,121.03
2019-04-20T03:16:24.223Z,154.13
2019-04-20T03:18:51.297Z,149.83
2019-04-20T03:21:33.033Z,163.97
2019-04-20T03:24:06.517Z,101.33
2019-04-20T03:26:29.789Z,90.67
2019-04-20T03:28:56.963Z,97.33
2019-04-20T03:31:54.355Z,76.13
2019-04-20T03:36:42.804Z,84.87
2019-04-20T03:39:01.492Z,80.27
2019-04-20T03:41:24.525Z,109.40
2019-04-20T03:43:46.102Z,81.33
2019-04-20T03:46:19.256Z,78.00
2019-04-20T03:48:58.683Z,114.57
2019-04-20T03:51:40.059Z,66.20
2019-04-20T03:54:12.163Z,79.67
2019-04-20T03:56:40.579Z,61.27
2019-04-20T03:59:10.426Z,44.47
2019-04-20T04:02:08.945Z,60.57
2019-04-20T04:04:21.497Z,63.60
2019-04-20T04:06:39.072Z,70.03
2019-04-20T04:09:13.615Z,62.03
2019-04-20T04:11:48.996Z,42.17
2019-04-20T04:14:05.012Z,43.87
2019-04-20T04:16:41.913Z,38.27
2019-04-20T04:19:12.714Z,36.47
2019-04-20T04:21:50.143Z,55.57
2019-04-20T04:24:19.944Z,59.47
2019-04-20T04:26:51.676Z,39.70
2019-04-20T04:29:34.581Z,30.80
2019-04-20T04:32:05.423Z,41.17
2019-04-20T04:34:31.035Z,36.17
2019-04-20T04:37:00.596Z,53.60
2019-04-20T04:39:32.212Z,66.93
2019-04-20T04:42:12.782Z,67.03
2019-04-20T04:44:26.616Z,126.90
2019-04-20T04:46:49.254Z,184.07
2019-04-20T04:49:19.513Z,349.00
2019-04-20T04:51:51.977Z,515.37
2019-04-20T04:54:24.680Z,712.30
2019-04-20T04:56:44.635Z,976.13
2019-04-20T04:59:14.842Z,999.90
2019-04-20T05:01:46.965Z,999.90
2019-04-20T05:04:32.064Z,999.90
2019-04-20T05:06:59.500Z,999.90
2019-04-20T05:09:17.679Z,963.20
2019-04-20T05:11:50.718Z,953.40
2019-04-20T05:14:24.226Z,827.50
2019-04-20T05:17:01.574Z,773.17
2019-04-20T05:19:42.517Z,748.23
2019-04-20T05:22:16.307Z,727.47
2019-04-20T05:24:41.692Z,676.23
2019-04-20T05:27:21.578Z,719.40
2019-04-20T05:29:31.403Z,721.33
2019-04-20T05:32:04.423Z,730.97
2019-04-20T05:34:53.394Z,773.47
2019-04-20T05:37:27.478Z,834.37
2019-04-20T05:39:50.943Z,820.20
2019-04-20T05:42:26.124Z,873.40
2019-04-20T05:44:55.633Z,867.37
2019-04-20T05:47:24.062Z,856.73
2019-04-20T05:49:49.939Z,892.77
2019-04-20T05:54:58.434Z,889.30
2019-04-20T05:57:31.923Z,896.33
2019-04-20T06:00:03.516Z,906.20
2019-04-20T06:02:30.588Z,905.93
2019-04-20T06:07:31.370Z,870.12
2019-04-20T06:10:02.001Z,843.97
2019-04-20T06:12:31.747Z,817.70
2019-04-20T06:14:57.156Z,769.08
2019-04-20T06:17:32.719Z,778.25
2019-04-20T06:20:06.139Z,775.95
2019-04-20T06:22:57.430Z,772.90
2019-04-20T06:25:26.067Z,756.25
2019-04-20T06:27:46.014Z,776.02
2019-04-20T06:30:05.897Z,781.67
2019-04-20T06:33:11.230Z,799.60
2019-04-20T06:35:54.611Z,800.77
2019-04-20T06:38:10.290Z,825.15
2019-04-20T06:41:00.612Z,826.13
2019-04-20T06:43:08.548Z,828.35
2019-04-20T06:45:44.787Z,784.40
2019-04-20T06:48:16.132Z,802.55
2019-04-20T06:50:38.719Z,796.65
2019-04-20T06:53:20.752Z,767.58
2019-04-20T06:55:48.644Z,792.05
2019-04-20T06:58:29.134Z,758.50
2019-04-20T07:00:46.538Z,748.65
2019-04-20T07:03:34.620Z,754.83
2019-04-20T07:05:44.728Z,750.65
2019-04-20T07:08:36.053Z,736.98
2019-04-20T07:10:56.348Z,730.75
2019-04-20T07:13:13.112Z,737.02
2019-04-20T07:15:48.924Z,745.57
2019-04-20T07:18:24.659Z,726.90
2019-04-20T07:23:26.840Z,678.77
2019-04-20T07:25:54.378Z,707.62
2019-04-20T07:28:31.313Z,705.25
2019-04-20T07:30:58.229Z,733.33
2019-04-20T07:33:28.415Z,728.52
2019-04-20T07:35:55.900Z,745.48
2019-04-20T07:38:34.262Z,740.08
2019-04-20T07:41:01.307Z,723.05
2019-04-20T07:43:30.030Z,745.10
2019-04-20T07:46:01.836Z,746.25
2019-04-20T07:48:49.237Z,715.90
2019-04-20T07:51:11.478Z,719.52
2019-04-20T07:53:50.201Z,774.30
2019-04-20T07:56:23.612Z,735.87
2019-04-20T07:58:45.496Z,720.67
2019-04-20T08:01:38.679Z,741.08
2019-04-20T08:07:01.694Z,715.30
2019-04-20T08:09:35.223Z,692.20
2019-04-20T08:12:22.079Z,672.00
2019-04-20T08:14:56.977Z,673.00
2019-04-20T08:17:30.969Z,690.42
2019-04-20T08:19:48.478Z,672.00
2019-04-20T08:22:24.617Z,712.20
2019-04-20T08:24:48.721Z,689.80
2019-04-20T08:27:06.531Z,700.27
2019-04-20T08:29:48.351Z,695.77
2019-04-20T08:32:27.108Z,729.62
2019-04-20T08:35:01.879Z,707.15
2019-04-20T08:37:29.275Z,681.73
2019-04-20T08:40:03.051Z,747.90
2019-04-20T08:42:33.255Z,704.70
2019-04-20T08:45:03.741Z,717.75
2019-04-20T08:47:48.225Z,736.60
2019-04-20T08:50:11.615Z,720.08
2019-04-20T08:52:58.679Z,753.88
2019-04-20T08:55:05.004Z,719.75
2019-04-20T08:57:16.017Z,766.05
2019-04-20T08:59:48.216Z,730.92
2019-04-20T09:02:18.705Z,701.22
2019-04-20T09:04:54.084Z,730.05
2019-04-20T09:07:24.372Z,764.25
2019-04-20T09:10:10.043Z,716.48
2019-04-20T09:12:35.531Z,710.02
2019-04-20T09:14:50.797Z,692.65
2019-04-20T09:17:29.933Z,675.55
2019-04-20T09:19:59.968Z,713.30
2019-04-20T09:22:34.359Z,684.73
2019-04-20T09:25:36.475Z,697.40
2019-04-20T09:27:52.181Z,703.17
2019-04-20T09:30:29.245Z,721.77
2019-04-20T09:33:09.857Z,721.22
2019-04-20T09:35:37.315Z,748.52
2019-04-20T09:38:11.582Z,789.83
2019-04-20T09:40:40.491Z,778.73
2019-04-20T09:42:57.797Z,748.17
2019-04-20T09:45:37.371Z,757.60
2019-04-20T09:48:00.556Z,742.53
2019-04-20T09:50:51.798Z,741.02
2019-04-20T09:53:14.300Z,734.83
2019-04-20T09:55:50.637Z,724.92
2019-04-20T09:58:15.514Z,807.83
2019-04-20T10:00:53.027Z,746.83
2019-04-20T10:03:06.646Z,785.00
2019-04-20T10:05:35.799Z,760.23
2019-04-20T10:08:08.477Z,747.95
2019-04-20T10:10:40.572Z,781.75
2019-04-20T10:13:07.336Z,731.58
2019-04-20T10:15:37.536Z,741.92
2019-04-20T10:18:07.877Z,782.27
2019-04-20T10:20:38.911Z,781.47
2019-04-20T10:23:08.709Z,862.35
2019-04-20T10:25:38.423Z,917.07
2019-04-20T10:28:07.694Z,803.00
2019-04-20T10:30:36.813Z,842.37
2019-04-20T10:33:07.747Z,828.33
2019-04-20T10:35:36.993Z,839.58
2019-04-20T10:38:07.612Z,789.32
2019-04-20T10:40:46.152Z,787.30
2019-04-20T10:43:08.045Z,849.05
2019-04-20T10:45:37.434Z,786.33
2019-04-20T10:48:06.644Z,836.92
2019-04-20T10:50:55.326Z,933.23
2019-04-20T10:53:25.901Z,895.65
2019-04-20T10:55:55.684Z,789.80
2019-04-20T10:58:25.281Z,766.50
2019-04-20T11:00:55.626Z,900.53
2019-04-20T11:03:24.900Z,796.95
2019-04-20T11:05:53.937Z,785.10
2019-04-20T11:08:24.399Z,765.08
2019-04-20T11:11:05.116Z,826.55
2019-04-20T11:13:25.442Z,790.28
2019-04-20T11:15:54.788Z,754.85
2019-04-20T11:18:24.839Z,802.22
2019-04-20T11:20:55.220Z,750.83
2019-04-20T11:23:24.536Z,770.60
2019-04-20T11:25:53.578Z,768.10
2019-04-20T11:28:23.983Z,773.05
2019-04-20T11:30:54.230Z,752.67
2019-04-20T11:33:24.526Z,777.15
2019-04-20T11:35:54.850Z,791.48
2019-04-20T11:38:24.167Z,772.33
2019-04-20T11:41:04.140Z,768.97
2019-04-20T11:43:23.995Z,783.65
2019-04-20T11:45:54.313Z,871.85
2019-04-20T11:48:23.507Z,848.17
2019-04-20T11:50:53.517Z,803.82
2019-04-20T11:53:26.216Z,746.05
2019-04-20T11:55:54.228Z,735.83
2019-04-20T11:58:23.855Z,753.65
2019-04-20T12:01:03.255Z,787.85
2019-04-20T12:03:33.321Z,799.60
2019-04-20T12:05:59.792Z,799.45
2019-04-20T12:08:27.198Z,850.95
2019-04-20T12:10:59.841Z,794.02
2019-04-20T12:13:27.064Z,752.85
2019-04-20T12:15:56.160Z,792.65
2019-04-20T12:18:25.465Z,825.05
2019-04-20T12:20:54.811Z,764.02
2019-04-20T12:23:24.453Z,749.00
2019-04-20T12:25:54.397Z,761.23
2019-04-20T12:28:23.618Z,774.88
2019-04-20T12:30:56.003Z,809.80
2019-04-20T12:33:24.373Z,770.73
2019-04-20T12:35:54.221Z,803.95
2019-04-20T12:38:23.393Z,774.98
2019-04-20T12:40:52.600Z,793.85
2019-04-20T12:43:21.662Z,773.97
2019-04-20T12:45:51.721Z,779.48
2019-04-20T12:48:21.799Z,714.17
2019-04-20T12:50:50.909Z,717.48
2019-04-20T12:53:20.438Z,744.73
2019-04-20T12:55:50.733Z,717.63
2019-04-20T12:58:20.872Z,713.55
2019-04-20T13:00:52.286Z,752.13
2019-04-20T13:03:21.547Z,722.10
2019-04-20T13:05:51.900Z,743.73
2019-04-20T13:08:28.654Z,730.40
2019-04-20T13:10:54.786Z,752.88
2019-04-20T13:13:26.151Z,744.35
2019-04-20T13:15:56.285Z,768.63
2019-04-20T13:18:27.448Z,788.17
2019-04-20T13:20:58.817Z,698.80
2019-04-20T13:23:28.973Z,900.05
2019-04-20T13:25:59.190Z,711.25
2019-04-20T13:28:28.891Z,788.55
2019-04-20T13:30:58.274Z,768.65
2019-04-20T13:33:29.443Z,754.10
2019-04-20T13:35:58.999Z,690.28
2019-04-20T13:38:30.175Z,798.90
2019-04-20T13:40:59.823Z,735.05
2019-04-20T13:43:29.991Z,708.72
2019-04-20T13:46:20.832Z,732.65
2019-04-20T13:48:51.048Z,781.45
2019-04-20T13:51:21.045Z,874.95
2019-04-20T13:53:51.016Z,768.35
2019-04-20T13:56:21.746Z,898.75
2019-04-20T13:58:52.727Z,754.27
2019-04-20T14:01:24.665Z,721.92
2019-04-20T14:03:55.510Z,781.15
2019-04-20T14:06:26.731Z,951.28
2019-04-20T14:08:56.859Z,756.00
2019-04-20T14:11:27.317Z,792.30
2019-04-20T14:14:00.368Z,832.08
2019-04-20T14:16:27.233Z,835.43
2019-04-20T14:18:56.343Z,775.55
2019-04-20T14:21:26.064Z,999.90
2019-04-20T14:23:55.298Z,832.75
2019-04-20T14:26:25.166Z,822.63
2019-04-20T14:28:54.785Z,818.20
2019-04-20T14:31:23.851Z,745.27
2019-04-20T14:33:53.012Z,705.03
2019-04-20T14:36:24.138Z,819.43
2019-04-20T14:38:54.092Z,742.80
2019-04-20T14:41:24.326Z,864.95
2019-04-20T14:43:53.410Z,798.73
2019-04-20T14:46:23.054Z,826.70
2019-04-20T14:48:52.420Z,877.45
2019-04-20T14:51:21.592Z,783.25
2019-04-20T14:53:51.577Z,745.00
2019-04-20T14:56:20.555Z,752.40
2019-04-20T14:58:51.454Z,706.55
2019-04-20T15:01:22.766Z,749.15
2019-04-20T15:04:00.155Z,873.05
2019-04-20T15:06:23.597Z,904.45
2019-04-20T15:08:52.803Z,855.03
2019-04-20T15:11:22.905Z,769.30
2019-04-20T15:13:53.067Z,735.90
2019-04-20T15:16:22.483Z,869.65
2019-04-20T15:18:54.652Z,749.95
2019-04-20T15:21:25.701Z,794.67
2019-04-20T15:23:55.434Z,761.75
2019-04-20T15:26:24.491Z,737.88
2019-04-20T15:28:54.556Z,739.45
2019-04-20T15:31:24.232Z,724.38
2019-04-20T15:33:53.322Z,744.83
2019-04-20T15:36:22.355Z,782.10
2019-04-20T15:38:51.440Z,769.58
2019-04-20T15:41:20.871Z,746.60
2019-04-20T15:43:51.243Z,690.23
2019-04-20T15:46:21.380Z,866.25
2019-04-20T15:48:50.601Z,825.80
2019-04-20T15:51:19.637Z,686.47
2019-04-20T15:53:49.546Z,759.33
2019-04-20T15:56:18.719Z,717.25
2019-04-20T15:58:48.361Z,791.62
2019-04-20T16:01:20.691Z,729.05
2019-04-20T16:03:51.521Z,774.92
2019-04-20T16:06:21.217Z,750.83
2019-04-20T16:08:52.281Z,771.05
2019-04-20T16:11:21.600Z,800.05
2019-04-20T16:13:53.987Z,861.22
2019-04-20T16:16:21.766Z,751.65
2019-04-20T16:18:50.805Z,751.63
2019-04-20T16:21:23.060Z,813.12
2019-04-20T16:23:54.693Z,758.20
2019-04-20T16:26:25.939Z,729.40
2019-04-20T16:28:55.507Z,721.67
2019-04-20T16:31:25.185Z,748.47
2019-04-20T16:33:56.942Z,736.75
2019-04-20T16:36:26.144Z,739.30
2019-04-20T16:38:55.590Z,769.00
2019-04-20T16:41:24.683Z,762.10
2019-04-20T16:43:53.698Z,770.57
2019-04-20T16:46:25.574Z,716.83
2019-04-20T16:48:54.836Z,827.58
2019-04-20T16:51:25.111Z,761.95
2019-04-20T16:53:54.300Z,754.50
2019-04-20T16:56:24.444Z,744.10
2019-04-20T16:59:00.287Z,733.53
2019-04-20T17:01:25.513Z,730.70
2019-04-20T17:04:05.704Z,797.48
2019-04-20T17:06:27.493Z,718.83
2019-04-20T17:08:56.643Z,848.53
2019-04-20T17:11:25.794Z,742.30
2019-04-20T17:13:57.932Z,891.02
2019-04-20T17:16:26.470Z,774.70
2019-04-20T17:18:57.344Z,795.20
2019-04-20T17:21:28.962Z,820.12
2019-04-20T17:23:57.532Z,842.88
2019-04-20T17:26:29.565Z,769.08
2019-04-20T17:29:01.760Z,769.60
2019-04-20T17:31:33.567Z,744.75
2019-04-20T17:34:25.032Z,770.60
2019-04-20T17:36:39.878Z,826.15
2019-04-20T17:39:11.596Z,748.42
2019-04-20T17:41:54.576Z,884.25
2019-04-20T17:44:28.704Z,768.90
2019-04-20T17:46:52.360Z,813.10
2019-04-20T17:49:26.537Z,806.45
2019-04-20T17:52:05.001Z,835.37
2019-04-20T17:54:15.816Z,848.72
2019-04-20T17:56:46.538Z,815.50
2019-04-20T17:59:16.693Z,851.60
2019-04-20T18:02:02.197Z,823.47
2019-04-20T18:04:52.028Z,830.57
2019-04-20T18:07:04.667Z,809.55
2019-04-20T18:09:47.491Z,861.48
2019-04-20T18:11:58.704Z,832.40
2019-04-20T18:14:43.267Z,840.05
2019-04-20T18:17:13.851Z,835.05
2019-04-20T18:19:32.698Z,799.05
2019-04-20T18:22:03.665Z,791.35
2019-04-20T18:24:55.762Z,830.43
2019-04-20T18:27:27.620Z,793.93
2019-04-20T18:29:53.401Z,840.53
2019-04-20T18:32:09.345Z,814.13
2019-04-20T18:34:44.037Z,823.03
2019-04-20T18:37:16.717Z,819.40
2019-04-20T18:39:50.548Z,837.17
2019-04-20T18:42:22.885Z,826.00
2019-04-20T18:45:05.972Z,835.87
2019-04-20T18:47:33.532Z,827.40
2019-04-20T18:49:57.263Z,810.87
2019-04-20T18:52:17.875Z,855.37
2019-04-20T18:54:49.720Z,803.00
2019-04-20T18:57:20.455Z,812.00
2019-04-20T18:59:54.140Z,811.43
2019-04-20T19:02:26.526Z,818.07
2019-04-20T19:04:50.079Z,807.20
2019-04-20T19:07:19.752Z,791.63
2019-04-20T19:09:55.230Z,789.17
2019-04-20T19:12:30.107Z,822.20
2019-04-20T19:15:02.432Z,809.17
2019-04-20T19:17:40.973Z,795.93
2019-04-20T19:20:00.459Z,808.90
2019-04-20T19:22:30.158Z,761.60
2019-04-20T19:25:00.040Z,765.83
2019-04-20T19:27:40.008Z,778.23
2019-04-20T19:30:15.217Z,781.93
2019-04-20T19:32:45.307Z,788.33
2019-04-20T19:35:23.901Z,764.80
2019-04-20T19:37:50.268Z,773.93
2019-04-20T19:40:18.254Z,766.17
2019-04-20T19:42:47.725Z,755.53
2019-04-20T19:45:37.291Z,764.87
2019-04-20T19:47:54.751Z,729.63
2019-04-20T19:50:35.508Z,704.37
2019-04-20T19:53:14.387Z,689.63
2019-04-20T19:55:27.365Z,617.97
2019-04-20T19:57:58.553Z,604.40
2019-04-20T20:00:16.748Z,543.63
2019-04-20T20:02:47.876Z,565.40
2019-04-20T20:05:19.205Z,591.27
2019-04-20T20:07:52.383Z,630.67
2019-04-20T20:10:20.818Z,625.73
2019-04-20T20:12:55.089Z,641.83
2019-04-20T20:15:26.203Z,674.87
2019-04-20T20:18:12.654Z,673.77
2019-04-20T20:20:41.480Z,726.40
2019-04-20T20:22:56.436Z,720.10
2019-04-20T20:25:29.651Z,719.70
2019-04-20T20:27:58.395Z,724.17
2019-04-20T20:30:33.176Z,700.57
2019-04-20T20:33:12.787Z,700.27
2019-04-20T20:35:29.396Z,727.67
2019-04-20T20:38:00.363Z,694.30
2019-04-20T20:40:32.714Z,723.10
2019-04-20T20:43:10.848Z,702.20
2019-04-20T20:45:38.152Z,710.23
2019-04-20T20:48:18.260Z,693.73
2019-04-20T20:50:52.178Z,701.43
2019-04-20T20:53:12.497Z,725.07
2019-04-20T20:55:42.084Z,744.40
2019-04-20T20:58:13.809Z,698.60
2019-04-20T21:00:45.760Z,707.00
2019-04-20T21:03:09.151Z,749.27
2019-04-20T21:05:35.720Z,762.43
2019-04-20T21:08:06.003Z,773.53
2019-04-20T21:10:41.005Z,798.33
2019-04-20T21:13:09.151Z,786.67
2019-04-20T21:15:38.229Z,838.43
2019-04-20T21:18:29.321Z,833.53
2019-04-20T21:20:55.997Z,833.53
2019-04-20T21:23:23.670Z,845.83
2019-04-20T21:25:48.371Z,842.83
2019-04-20T21:28:13.086Z,909.57
2019-04-20T21:30:45.145Z,912.57
2019-04-20T21:33:13.209Z,959.00
2019-04-20T21:35:48.335Z,942.83
2019-04-20T21:38:16.531Z,938.50
2019-04-20T21:40:48.757Z,997.50
2019-04-20T21:43:16.308Z,962.50
2019-04-20T21:45:54.072Z,996.77
2019-04-20T21:48:34.038Z,961.80
2019-04-20T21:51:05.848Z,998.37
2019-04-20T21:53:22.936Z,999.90
2019-04-20T21:55:48.367Z,972.90
2019-04-20T21:58:18.415Z,999.90
2019-04-20T22:01:03.801Z,999.90
2019-04-20T22:03:22.704Z,999.90
2019-04-20T22:05:53.558Z,999.90
2019-04-20T22:08:22.642Z,999.90
2019-04-20T22:10:51.790Z,999.90
2019-04-20T22:13:28.148Z,999.90
2019-04-20T22:15:59.745Z,999.90
2019-04-20T22:18:23.931Z,999.90
2019-04-20T22:21:05.939Z,999.90
2019-04-20T22:23:46.399Z,999.90
2019-04-20T22:26:09.617Z,999.90
2019-04-20T22:28:26.521Z,999.90
2019-04-20T22:30:55.831Z,999.90
2019-04-20T22:33:31.426Z,999.90
2019-04-20T22:36:00.915Z,999.90
2019-04-20T22:38:30.818Z,965.10
2019-04-20T22:41:06.814Z,963.03
2019-04-20T22:43:34.997Z,922.53
2019-04-20T22:46:01.319Z,841.83
2019-04-20T22:48:31.336Z,854.83
2019-04-20T22:51:37.336Z,761.43
2019-04-20T22:53:44.018Z,695.90
2019-04-20T22:56:19.744Z,637.33
2019-04-20T22:58:44.802Z,707.03
2019-04-20T23:01:09.580Z,570.97
2019-04-20T23:03:34.716Z,510.30
2019-04-20T23:06:04.820Z,558.20
2019-04-20T23:08:35.034Z,560.40
2019-04-20T23:11:05.984Z,636.77
2019-04-20T23:13:39.762Z,606.00
2019-04-20T23:16:07.414Z,505.73
2019-04-20T23:18:36.481Z,589.73
2019-04-20T23:21:10.453Z,572.53
2019-04-20T23:23:37.374Z,544.10
2019-04-20T23:26:07.248Z,549.50
2019-04-20T23:28:40.067Z,420.83
2019-04-20T23:31:13.359Z,417.13
2019-04-20T23:33:38.074Z,241.80
2019-04-20T23:36:08.497Z,386.57
2019-04-20T23:38:42.508Z,429.23
2019-04-20T23:41:08.421Z,439.03
2019-04-20T23:43:40.443Z,425.40
2019-04-20T23:46:17.230Z,402.20
2019-04-20T23:48:45.113Z,359.67
2019-04-20T23:51:36.936Z,337.67
2019-04-20T23:53:55.334Z,391.27
2019-04-20T23:56:17.420Z,431.57
2019-04-20T23:58:51.218Z,435.60
